Sant Martí Sacalm





Hora UTC 20:55
Temperatura 2.4 ºC
Humitat 92.7 %
Pressió 1001.8 hPa
Pluja 0.0 mm
Velocitat vent 12.1 km/h
Direcció vent WSW
Radiació solar 0.1 W/m²

Dades diàries 2019-11-15



Hora UTC (hivern +1h; estiu +2h)
Temperatura (ºC) Humitat (%) Pressió (hPa) Velocitat vent (km/h) Precipitació (mm) Radiació solar (W/m²)
Hora UTC Aire Humitat Pressió Vel. Dir. Vel. Max Dir. Intent. màx 5 min. Rad. Sol.
00:05 2.3 95.2 997.8 10.3 SW 10.3 WSW 0.0 0.1
00:10 1.9 95.8 997.8 9.6 SW 13.1 SW 0.0 0.1
00:15 1.6 97.5 997.8 7.2 SW 9.9 WSW 0.0 0.1
00:20 1.8 98.7 997.8 8.5 SW 12.0 WSW 0.0 0.1
00:25 2.0 98.8 997.8 9.2 SW 13.4 SW 0.0 0.1
00:30 2.0 98.9 998.0 11.1 SW 13.8 SW 0.0 0.1
00:35 2.1 99.1 998.0 10.8 SW 13.4 WSW 0.0 0.1
00:40 2.0 99.2 997.9 9.2 SW 12.7 WSW 0.0 0.1
00:45 1.9 99.4 997.9 10.7 SW 14.1 SW 0.0 0.1
00:50 1.9 99.6 998.0 10.1 SSW 12.7 SW 0.0 0.1
00:55 1.9 99.7 998.0 8.4 SW 11.7 SW 0.0 0.1
01:00 1.9 99.8 998.0 9.8 SSW 13.8 SW 0.0 0.1
01:05 1.8 99.8 997.9 7.8 SW 12.0 SW 0.0 0.1
01:10 1.6 99.8 997.9 8.5 SW 11.3 SW 0.0 0.1
01:15 1.7 100.0 997.9 9.5 SW 12.7 SW 0.0 0.1
01:20 1.8 100.0 998.0 6.0 SW 9.9 WSW 0.0 0.1
01:25 1.9 99.9 998.0 4.4 SW 7.1 SW 0.0 0.1
01:30 1.9 99.6 998.1 4.4 SW 8.5 SSW 0.0 0.1
01:35 1.9 98.8 998.0 5.5 SW 8.5 SW 0.0 0.1
01:40 1.9 97.0 998.0 5.6 SW 8.8 SW 0.0 0.1
01:45 2.0 95.1 998.0 8.4 SW 11.7 SSW 0.0 0.1
01:50 2.1 94.0 998.1 8.0 SW 13.1 SW 0.0 0.1
01:55 1.9 95.3 998.1 7.3 SW 11.0 SW 0.0 0.1
02:00 1.7 97.2 998.2 8.4 SSW 12.4 SSW 0.0 0.1
02:05 1.6 98.4 998.2 10.1 SW 13.4 SW 0.0 0.1
02:10 1.6 99.0 998.1 10.5 SW 13.8 SW 0.0 0.1
02:15 1.5 99.2 998.1 12.2 SW 16.6 SW 0.0 0.1
02:20 1.5 99.4 998.1 11.8 SW 16.2 WSW 0.0 0.1
02:25 1.5 99.4 998.1 10.3 SW 14.5 SW 0.0 0.1
02:30 1.4 99.4 998.1 9.5 WSW 12.4 WSW 0.0 0.1
02:35 1.4 99.4 998.1 9.4 WSW 12.0 SW 0.0 0.1
02:40 1.5 99.1 998.1 7.4 SW 11.3 W 0.0 0.1
02:45 1.6 98.6 998.1 6.7 WSW 9.5 WSW 0.0 0.1
02:50 1.7 97.4 998.1 8.3 WSW 11.7 WSW 0.0 0.1
02:55 1.9 95.6 998.1 8.2 WSW 11.3 SW 0.0 0.1
03:00 2.0 94.6 998.2 4.9 WSW 8.1 WSW 0.0 0.1
03:05 2.1 93.6 998.2 3.5 WSW 5.7 WSW 0.0 0.1
03:10 2.1 93.5 998.2 4.6 N 8.5 NNE 0.0 0.1
03:15 2.0 95.0 998.3 5.9 ENE 9.5 ENE 0.0 0.1
03:20 1.8 95.3 998.3 5.1 ENE 9.2 NNE 0.0 0.1
03:25 1.6 95.7 998.3 3.1 NE 5.7 ENE 0.0 0.1
03:30 1.8 95.3 998.4 3.1 N 6.0 N 0.0 0.1
03:35 2.1 92.6 998.3 1.7 ENE 4.2 NNE 0.0 0.1
03:40 1.9 93.4 998.4 2.3 SE 4.2 SE 0.0 0.1
03:45 1.9 94.1 998.4 4.0 ESE 5.7 SE 0.0 0.1
03:50 1.8 94.1 998.3 4.4 E 5.7 ESE 0.0 0.1
03:55 1.8 94.4 998.3 4.2 NNE 6.0 NE 0.0 0.1
04:00 1.8 94.1 998.3 4.4 NE 6.7 ENE 0.0 0.1
04:05 1.7 94.6 998.3 6.5 ENE 8.1 ENE 0.0 0.1
04:10 1.7 95.2 998.4 5.8 ENE 8.1 ENE 0.0 0.1
04:15 1.6 95.2 998.5 3.5 E 5.0 ENE 0.0 0.1
04:20 1.6 95.5 998.5 4.3 ENE 5.7 ENE 0.0 0.1
04:25 1.6 95.2 998.5 3.3 NW 6.4 WNW 0.0 0.1
04:30 1.8 93.8 998.5 3.2 WNW 5.0 WNW 0.0 0.1
04:35 2.0 92.7 998.4 3.9 NW 5.3 NW 0.0 0.1
04:40 2.0 92.1 998.4 4.4 NW 6.0 NW 0.0 0.1
04:45 2.0 92.2 998.4 3.6 NNW 5.3 NW 0.0 0.1
04:50 2.1 92.2 998.3 4.6 NNE 6.4 NNE 0.0 0.1
04:55 2.1 92.5 998.3 6.0 NNE 9.2 N 0.0 0.1
05:00 2.0 92.8 998.3 6.3 N 9.2 N 0.0 0.1
05:05 2.2 92.0 998.4 4.7 N 6.4 NNW 0.0 0.1
05:10 2.4 90.7 998.3 5.2 NNE 6.7 NNE 0.0 0.1
05:15 2.3 91.2 998.4 4.1 NNE 6.4 NNE 0.0 0.1
05:20 2.0 92.7 998.5 4.5 NE 6.7 NE 0.0 0.1
05:25 2.0 93.7 998.5 6.1 NE 7.8 NE 0.0 0.1
05:30 2.2 92.3 998.5 5.4 NNE 7.1 NNE 0.0 0.1
05:35 2.2 92.2 998.5 7.1 NNE 9.9 NNE 0.0 0.1
05:40 2.2 92.9 998.5 6.0 NNE 8.8 NNE 0.0 0.1
05:45 2.2 92.6 998.5 6.1 NE 8.1 NNE 0.0 0.1
05:50 2.0 93.3 998.6 5.0 ENE 6.7 ENE 0.0 0.1
05:55 1.8 94.4 998.6 4.2 ENE 6.4 NE 0.0 0.1
06:00 2.0 94.6 998.6 6.5 NE 8.1 NE 0.0 0.1
06:05 2.0 94.3 998.5 6.2 NE 8.8 NE 0.0 0.1
06:10 2.1 94.0 998.5 6.3 NE 9.9 NNE 0.0 0.1
06:15 2.1 93.9 998.5 5.9 ENE 10.6 NE 0.0 0.1
06:20 2.1 93.9 998.5 5.0 ENE 9.9 NE 0.0 0.1
06:25 2.0 94.3 998.6 6.9 ENE 8.8 ENE 0.0 0.1
06:30 2.1 94.2 998.6 6.7 NE 9.2 NE 0.0 0.4
06:35 2.2 93.5 998.6 5.1 ENE 8.1 NE 0.0 0.9
06:40 2.4 92.4 998.6 4.0 NE 7.1 NE 0.0 1.7
06:45 2.4 92.7 998.6 5.2 E 7.1 E 0.0 2.7
06:50 2.2 93.9 998.7 4.3 ENE 7.1 E 0.0 4.1
06:55 2.3 93.8 998.7 1.8 E 3.9 E 0.0 8.1
07:00 2.5 92.9 998.7 0.3 ENE 2.1 ESE 0.0 10.8
07:05 2.7 93.2 998.8 0.0 NNE 0.0 NW 0.0 14.6
07:10 2.9 93.2 998.8 0.1 NW 2.5 NW 0.0 17.6
07:15 3.1 93.8 998.9 0.9 NW 3.2 NW 0.0 19.0
07:20 3.1 94.7 999.0 0.5 ESE 3.2 E 0.0 17.1
07:25 3.2 95.1 999.1 0.8 SSE 3.9 SSE 0.0 17.7
07:30 3.3 95.6 999.1 2.1 SW 3.5 WSW 0.0 19.8
07:35 3.3 95.9 999.2 2.7 SW 4.2 WSW 0.0 17.6
07:40 3.4 95.9 999.3 2.7 WSW 5.0 SW 0.0 18.2
07:45 3.2 95.6 999.4 4.9 SW 6.4 SW 0.0 26.1
07:50 2.9 95.2 999.4 4.8 SW 6.4 WSW 0.0 26.7
07:55 2.9 95.6 999.4 3.6 SW 5.0 SW 0.0 30.5
08:00 3.0 95.9 999.4 4.6 SSW 7.1 SSW 0.0 34.4
08:05 3.1 96.2 999.5 4.7 SW 7.1 SW 0.0 40.7
08:10 3.0 96.0 999.4 6.0 SW 7.4 SW 0.0 48.6
08:15 2.9 95.7 999.4 5.2 SSW 6.7 SSW 0.0 48.5
08:20 3.0 96.3 999.4 4.2 S 6.4 S 0.0 44.0
08:25 3.0 96.2 999.4 4.4 SSW 6.4 SSW 0.0 39.0
08:30 3.3 95.8 999.4 3.9 SW 5.3 SW 0.0 50.6
08:35 3.3 95.1 999.4 3.9 SW 5.7 SW 0.0 73.1
08:40 3.3 95.2 999.4 3.5 SW 5.0 SW 0.0 78.2
08:45 3.3 95.5 999.4 4.6 SW 6.0 SW 0.0 106.6
08:50 3.4 95.2 999.4 4.6 SW 6.4 SW 0.0 93.8
08:55 3.6 96.1 999.4 5.7 WSW 7.8 SW 0.0 68.7
09:00 3.3 95.4 999.5 7.0 SW 8.8 SW 0.0 45.2
09:05 2.9 96.1 999.5 6.1 SW 8.1 SW 0.0 49.9
09:10 2.7 96.9 999.5 3.8 SW 5.7 SW 0.0 45.0
09:15 2.8 97.7 999.5 4.1 SSW 5.7 SSW 0.0 36.6
09:20 3.0 97.9 999.5 4.5 S 6.7 SSE 0.0 93.5
09:25 3.3 98.2 999.5 2.2 SSE 5.3 SSE 0.0 123.9
09:30 3.6 97.8 999.4 2.8 SSW 5.3 SW 0.0 145.3
09:35 4.0 96.4 999.4 4.8 SW 7.1 SW 0.0 185.0
09:40 4.1 95.1 999.4 5.1 SW 7.1 SW 0.0 205.4
09:45 4.0 95.6 999.4 7.4 SW 10.3 SW 0.0 205.6
09:50 3.7 96.2 999.4 7.7 SW 10.3 SW 0.0 201.2
09:55 3.1 96.5 999.4 6.6 SW 8.5 SW 0.0 190.9
10:00 3.0 97.9 999.4 8.0 SW 9.9 SW 0.0 177.1
10:05 3.0 98.4 999.4 8.7 SSW 12.0 SSW 0.0 161.1
10:10 2.8 98.6 999.3 9.9 SW 12.4 SW 0.0 169.1
10:15 2.8 99.0 999.3 10.3 SW 14.1 SSW 0.0 173.2
10:20 2.6 99.0 999.3 11.4 SW 14.1 SW 0.0 235.2
10:25 2.7 99.2 999.2 11.1 SW 13.1 SSW 0.0 240.3
10:30 2.9 99.5 999.2 11.1 SW 15.2 SW 0.0 300.3
10:35 3.1 99.4 999.1 13.4 SW 17.7 SW 0.0 339.1
10:40 3.0 99.0 999.0 14.0 SW 18.0 SW 0.0 385.2
10:45 3.0 98.8 999.0 15.5 SW 20.5 SW 0.0 374.9
10:50 2.9 98.6 999.0 15.7 SW 20.1 SW 0.0 344.5
10:55 3.0 98.4 998.9 14.2 SW 18.4 SW 0.0 339.1
11:00 3.0 98.0 998.9 15.3 SW 19.1 SW 0.0 361.5
11:05 3.0 98.1 998.8 17.7 SW 22.6 SW 0.0 344.7
11:10 3.2 98.4 998.7 17.1 SW 20.5 SSW 0.0 399.3
11:15 3.3 96.9 998.6 20.0 SW 25.1 SW 0.0 379.0
11:20 3.4 95.7 998.6 19.1 SW 26.5 SW 0.0 344.0
11:25 3.5 94.5 998.5 19.3 SW 25.1 WSW 0.0 349.7
11:30 3.5 93.7 998.5 18.0 SW 22.6 SW 0.0 326.4
11:35 3.6 94.5 998.4 19.8 SW 24.0 SSW 0.0 348.4
11:40 3.7 95.3 998.4 19.3 SW 25.4 SSW 0.0 361.8
11:45 3.7 93.9 998.3 20.7 SW 26.1 SW 0.0 419.4
11:50 4.0 93.3 998.3 20.4 SW 27.9 SW 0.0 427.5
11:55 4.5 91.7 998.2 20.5 SW 30.7 SW 0.0 432.5
12:00 4.2 91.1 998.1 23.7 SW 30.7 SW 0.0 412.0
12:05 4.1 90.4 998.1 24.9 SW 33.9 SW 0.0 391.4
12:10 4.0 90.4 998.1 24.7 SW 31.1 SW 0.0 381.7
12:15 4.0 90.7 998.0 26.0 SW 34.6 SW 0.0 373.6
12:20 4.0 90.9 998.0 26.0 SW 35.3 SSW 0.0 322.9
12:25 4.0 90.6 998.0 24.8 SW 32.8 SW 0.0 334.1
12:30 4.0 90.1 997.9 27.2 SW 35.3 SW 0.0 312.3
12:35 4.0 88.5 997.7 29.7 SW 38.8 WSW 0.0 291.7
12:40 4.0 88.0 997.7 29.4 SW 37.4 SSW 0.0 276.9
12:45 4.0 87.3 997.7 28.1 SW 35.3 SW 0.0 287.7
12:50 4.0 87.0 997.6 28.6 SW 36.4 SSW 0.0 316.2
12:55 4.3 85.8 997.5 29.5 SW 36.7 SW 0.0 385.0
13:00 4.4 84.9 997.6 28.0 SW 37.8 SW 0.0 371.3
13:05 4.6 84.1 997.6 26.6 SW 35.3 SW 0.0 454.7
13:10 4.8 84.0 997.6 25.4 SW 32.5 SW 0.0 458.0
13:15 4.9 83.0 997.6 24.7 SW 33.5 SW 0.0 413.7
13:20 4.7 82.7 997.5 26.9 SW 37.1 SW 0.0 408.6
13:25 5.0 81.3 997.5 27.1 SW 38.5 SW 0.0 421.7
13:30 4.9 79.7 997.3 31.9 SW 42.0 SW 0.0 336.5
13:35 4.5 80.2 997.4 31.1 SW 42.0 SW 0.0 246.8
13:40 4.6 79.6 997.4 31.5 SW 42.0 SW 0.0 235.7
13:45 4.5 80.4 997.2 34.1 SW 47.6 SW 0.0 333.4
13:50 4.5 81.0 997.3 29.8 SW 42.7 SW 0.0 196.3
13:55 4.3 82.6 997.3 29.3 SW 38.5 SW 0.0 161.3
14:00 4.4 83.4 997.3 27.0 SW 37.8 SW 0.0 229.2
14:05 4.9 81.9 997.3 26.1 SW 36.4 SW 0.0 277.9
14:10 4.7 82.0 997.3 28.9 SW 43.1 SW 0.0 185.4
14:15 4.9 79.8 997.2 32.2 SW 43.1 SW 0.0 314.0
14:20 5.2 77.9 997.1 33.3 SW 45.5 SW 0.0 341.1
14:25 5.3 78.2 997.2 32.7 SW 44.5 SW 0.0 321.1
14:30 5.3 78.3 997.2 31.7 SW 46.6 SW 0.0 305.0
14:35 5.3 77.3 997.4 28.6 SW 42.0 WSW 0.0 290.1
14:40 5.5 78.1 997.6 23.4 SW 35.7 SW 0.0 251.1
14:45 5.7 77.4 997.7 23.4 SW 33.9 WSW 0.0 262.6
14:50 5.6 77.7 997.7 24.9 SW 37.1 SSW 0.0 265.6
14:55 5.4 77.1 997.6 29.0 SW 40.9 SW 0.0 273.0
15:00 5.3 77.4 997.6 30.2 SW 44.1 SW 0.0 246.3
15:05 5.3 77.3 997.7 27.3 SW 39.2 SW 0.0 214.4
15:10 5.3 76.9 997.7 27.4 SW 45.5 SW 0.0 201.1
15:15 5.1 76.2 997.6 29.5 SW 44.8 SW 0.0 191.1
15:20 5.0 75.9 997.6 30.7 SW 43.8 SW 0.0 183.3
15:25 4.9 77.0 997.7 29.4 SW 42.7 SW 0.0 167.4
15:30 4.8 77.9 997.6 29.1 SW 40.6 SSW 0.0 149.2
15:35 4.8 78.5 997.6 29.7 SW 44.1 SW 0.0 139.2
15:40 4.5 79.4 997.8 25.2 SW 34.6 SW 0.0 51.6
15:45 4.2 80.8 997.9 26.8 SW 41.6 SW 0.0 54.8
15:50 4.3 81.0 998.2 21.1 SW 35.3 SW 0.0 89.2
15:55 4.5 79.8 998.2 21.5 SW 32.1 SW 0.0 82.4
16:00 4.5 79.9 998.3 22.7 SW 31.1 SW 0.0 52.5
16:05 4.2 81.3 998.2 22.9 SW 38.1 SW 0.0 31.3
16:10 4.0 81.5 998.2 22.8 SW 38.5 SW 0.0 26.1
16:15 3.9 82.7 998.2 23.7 SW 34.9 SW 0.0 21.8
16:20 3.8 82.8 998.2 23.5 SW 37.1 SW 0.0 15.5
16:25 3.8 83.1 998.3 23.3 SW 38.5 SW 0.0 10.7
16:30 3.7 83.7 998.4 19.9 SW 27.2 WSW 0.0 6.3
16:35 3.6 84.2 998.4 19.9 WSW 27.9 WSW 0.0 3.4
16:40 3.6 84.6 998.4 21.8 SW 33.9 SW 0.0 1.7
16:45 3.5 85.0 998.4 22.2 SW 34.9 SW 0.0 0.7
16:50 3.4 85.7 998.5 20.0 SW 27.9 WSW 0.0 0.3
16:55 3.3 86.1 998.6 21.9 SW 32.1 WSW 0.0 0.1
17:00 3.2 85.6 998.6 20.7 SW 32.8 SW 0.0 0.1
17:05 3.2 85.4 998.7 23.3 SW 36.4 SW 0.0 0.1
17:10 3.1 86.2 998.8 21.9 SW 32.1 SSW 0.0 0.1
17:15 3.1 86.9 998.9 21.2 SW 30.7 SW 0.0 0.1
17:20 3.1 86.8 999.0 22.7 WSW 33.5 WSW 0.0 0.1
17:25 3.0 87.1 999.1 19.6 SW 29.3 SW 0.0 0.1
17:30 3.0 86.7 999.2 20.3 SW 32.5 SW 0.0 0.1
17:35 2.9 88.0 999.2 20.2 SW 28.6 WSW 0.0 0.1
17:40 2.8 88.8 999.4 19.8 SW 26.5 SW 0.0 0.1
17:45 2.8 89.5 999.4 19.8 SW 25.4 SW 0.0 0.1
17:50 2.7 89.8 999.5 20.3 SW 27.2 SW 0.0 0.1
17:55 2.6 90.7 999.5 20.2 SW 25.8 SSW 0.0 0.1
18:00 2.6 91.3 999.6 20.7 SW 28.6 SW 0.0 0.1
18:05 2.6 91.6 999.8 18.4 SW 24.7 SW 0.0 0.1
18:10 2.6 91.7 999.9 18.0 SW 24.0 WSW 0.0 0.1
18:15 2.6 91.4 999.9 20.3 SW 26.5 SW 0.0 0.1
18:20 2.6 91.2 999.9 18.5 SW 26.5 SW 0.0 0.1
18:25 2.5 92.0 999.9 19.4 SW 27.9 WSW 0.0 0.1
18:30 2.5 91.7 1000.1 16.0 WSW 24.0 SW 0.0 0.1
18:35 2.4 92.0 1000.1 15.9 SW 22.2 SW 0.0 0.1
18:40 2.4 92.2 1000.2 15.9 WSW 20.8 WSW 0.0 0.1
18:45 2.5 92.2 1000.2 19.1 SW 26.8 SW 0.0 0.1
18:50 2.5 92.1 1000.2 18.3 SW 26.1 SW 0.0 0.1
18:55 2.4 92.2 1000.3 17.3 WSW 23.7 WSW 0.0 0.1
19:00 2.4 92.2 1000.4 14.6 WSW 20.1 WSW 0.0 0.1
19:05 2.3 92.2 1000.5 11.9 WSW 18.0 WSW 0.0 0.1
19:10 2.4 91.2 1000.5 11.8 WSW 17.3 WSW 0.0 0.1
19:15 2.4 90.6 1000.6 12.8 WSW 21.2 WSW 0.0 0.1
19:20 2.4 91.4 1000.7 13.8 WSW 19.1 W 0.0 0.1
19:25 2.2 91.9 1000.7 12.5 WSW 16.2 SW 0.0 0.1
19:30 2.1 92.6 1000.8 14.2 WSW 19.4 WSW 0.0 0.1
19:35 2.1 93.1 1000.8 15.2 WSW 21.2 WSW 0.0 0.1
19:40 2.1 92.6 1000.8 15.9 WSW 26.1 W 0.0 0.1
19:45 2.4 89.9 1000.8 14.9 WSW 27.2 WSW 0.0 0.1
19:50 2.4 89.9 1000.8 11.9 WSW 20.1 WNW 0.0 0.1
19:55 2.3 90.1 1000.9 11.9 WSW 18.7 WSW 0.0 0.1
20:00 2.3 90.8 1000.9 15.1 WSW 19.8 WSW 0.0 0.1
20:05 2.1 91.9 1001.0 12.4 WSW 18.4 W 0.0 0.1
20:10 2.1 92.3 1001.0 11.1 WSW 14.8 SW 0.0 0.1
20:15 2.0 92.6 1001.0 12.8 WSW 15.9 WSW 0.0 0.1
20:20 1.9 93.3 1001.1 14.6 WSW 18.4 WSW 0.0 0.1
20:25 1.8 93.6 1001.2 15.8 WSW 19.1 SW 0.0 0.1
20:30 1.9 93.9 1001.4 14.4 WSW 20.1 WSW 0.0 0.1
20:35 1.9 93.9 1001.4 13.5 WSW 19.8 WSW 0.0 0.1
20:40 2.1 93.3 1001.6 11.5 WSW 15.2 WSW 0.0 0.1
20:45 2.2 93.4 1001.7 11.8 WSW 17.7 SW 0.0 0.1
20:50 2.3 92.8 1001.8 11.1 WSW 15.2 WSW 0.0 0.1
20:55 2.4 92.7 1001.8 12.1 WSW 16.2 WSW 0.0 0.1
Màxima 5.7 100.0 1001.8 34.1 SW 47.6 SW 0.0 458.0
Mínima 1.3 75.9 997.1
Total 0.0